createdAt,value
2023-05-01T00:00:24.416Z,12.16
2023-05-01T00:12:24.504Z,12.16
2023-05-01T00:24:24.542Z,12.15
2023-05-01T00:36:24.424Z,12.13
2023-05-01T00:48:24.525Z,12.12
2023-05-01T01:00:24.537Z,12.11
2023-05-01T01:12:24.521Z,12.11
2023-05-01T01:24:24.508Z,12.09
2023-05-01T01:36:24.425Z,12.07
2023-05-01T01:48:24.425Z,12.05
2023-05-01T02:00:24.535Z,12.06
2023-05-01T02:12:24.516Z,12.05
2023-05-01T02:24:24.539Z,12.03
2023-05-01T02:36:24.428Z,12.03
2023-05-01T02:48:24.418Z,12.01
2023-05-01T03:00:24.535Z,12.00
2023-05-01T03:12:24.514Z,11.99
2023-05-01T03:24:24.513Z,11.98
2023-05-01T03:36:24.505Z,11.96
2023-05-01T03:48:24.548Z,11.95
2023-05-01T04:00:24.428Z,11.95
2023-05-01T04:12:24.522Z,11.94
2023-05-01T04:24:24.454Z,11.92
2023-05-01T04:36:24.435Z,11.91
2023-05-01T04:48:24.418Z,11.91
2023-05-01T05:00:24.443Z,11.90
2023-05-01T05:12:24.511Z,11.88
2023-05-01T05:24:24.538Z,11.90
2023-05-01T05:36:24.518Z,11.90
2023-05-01T05:48:24.443Z,11.90
2023-05-01T06:00:24.536Z,11.90
2023-05-01T06:12:24.435Z,11.91
2023-05-01T06:24:24.519Z,11.94
2023-05-01T06:36:24.491Z,11.95
2023-05-01T06:48:24.519Z,11.99
2023-05-01T07:00:24.535Z,12.03
2023-05-01T07:12:24.452Z,12.08
2023-05-01T07:24:24.428Z,12.21
2023-05-01T07:36:24.552Z,12.23
2023-05-01T07:48:24.422Z,12.44
2023-05-01T08:00:24.584Z,12.46
2023-05-01T08:12:24.418Z,12.52
2023-05-01T08:24:24.468Z,12.61
2023-05-01T08:36:24.517Z,12.61
2023-05-01T08:48:24.419Z,12.63
2023-05-01T09:00:24.425Z,12.63
2023-05-01T09:12:24.554Z,12.63
2023-05-01T09:24:24.421Z,12.62
2023-05-01T09:36:24.607Z,12.62
2023-05-01T09:48:24.497Z,12.62
2023-05-01T10:00:24.427Z,12.61
2023-05-01T10:12:24.515Z,12.61
2023-05-01T10:24:24.445Z,12.64
2023-05-01T10:36:24.436Z,12.64
2023-05-01T10:48:24.421Z,12.63
2023-05-01T11:00:24.429Z,12.65
2023-05-01T11:12:24.480Z,12.65
2023-05-01T11:24:24.487Z,12.66
2023-05-01T11:36:24.505Z,12.67
2023-05-01T11:48:24.527Z,12.69
2023-05-01T12:00:24.518Z,12.68
2023-05-01T12:12:24.554Z,12.68
2023-05-01T12:24:24.429Z,12.66
2023-05-01T12:36:24.421Z,12.66
2023-05-01T12:48:24.513Z,12.69
2023-05-01T13:00:24.501Z,12.69
2023-05-01T13:12:24.418Z,12.69
2023-05-01T13:24:24.493Z,12.69
2023-05-01T13:36:26.213Z,12.70
2023-05-01T13:48:24.443Z,12.68
2023-05-01T14:00:24.494Z,12.68
2023-05-01T14:12:24.464Z,12.69
2023-05-01T14:24:24.464Z,12.72
2023-05-01T14:36:24.427Z,12.72
2023-05-01T14:48:24.480Z,12.73
2023-05-01T15:00:24.421Z,12.76
2023-05-01T15:12:24.433Z,12.77
2023-05-01T15:24:24.454Z,12.78
2023-05-01T15:36:24.463Z,12.77
2023-05-01T15:48:24.469Z,12.73
2023-05-01T16:00:24.448Z,12.71
2023-05-01T16:12:24.452Z,12.68
2023-05-01T16:24:24.514Z,12.66
2023-05-01T16:36:24.423Z,12.63
2023-05-01T16:48:24.466Z,12.60
2023-05-01T17:00:24.526Z,12.58
2023-05-01T17:12:24.442Z,12.57
2023-05-01T17:24:24.845Z,12.57
2023-05-01T17:36:24.423Z,12.56
2023-05-01T17:48:24.452Z,12.55
2023-05-01T18:00:24.532Z,12.55
2023-05-01T18:12:24.515Z,12.53
2023-05-01T18:24:24.418Z,12.51
2023-05-01T18:36:24.434Z,12.51
2023-05-01T18:48:24.532Z,12.49
2023-05-01T19:00:24.556Z,12.47
2023-05-01T19:12:24.417Z,12.46
2023-05-01T19:24:24.510Z,12.45
2023-05-01T19:36:24.481Z,12.43
2023-05-01T19:48:24.418Z,12.41
2023-05-01T20:00:24.417Z,12.41
2023-05-01T20:12:24.419Z,12.39
2023-05-01T20:24:24.416Z,12.38
2023-05-01T20:36:25.439Z,12.37
2023-05-01T20:48:24.544Z,12.35
2023-05-01T21:00:24.510Z,12.33
2023-05-01T21:12:24.430Z,12.33
2023-05-01T21:24:24.513Z,12.31
2023-05-01T21:36:24.428Z,12.31
2023-05-01T21:48:24.625Z,12.29
2023-05-01T22:00:24.429Z,12.28
2023-05-01T22:12:24.439Z,12.26
2023-05-01T22:24:24.810Z,12.25
2023-05-01T22:36:24.512Z,12.25
2023-05-01T22:48:24.427Z,12.23
2023-05-01T23:00:24.518Z,12.22
2023-05-01T23:12:24.448Z,12.21
2023-05-01T23:24:24.539Z,12.19
2023-05-01T23:36:24.419Z,12.19
2023-05-01T23:48:24.524Z,12.17
